createdAt,value
2019-04-26T00:00:44.157Z,80.76
2019-04-26T00:03:16.239Z,81.04
2019-04-26T00:05:45.771Z,81.00
2019-04-26T00:08:15.837Z,81.27
2019-04-26T00:10:54.934Z,81.57
2019-04-26T00:16:39.250Z,82.27
2019-04-26T00:19:09.412Z,82.06
2019-04-26T00:21:39.239Z,82.06
2019-04-26T00:24:08.810Z,82.16
2019-04-26T00:26:38.312Z,82.06
2019-04-26T00:29:07.678Z,81.75
2019-04-26T00:31:37.069Z,81.44
2019-04-26T00:34:06.459Z,81.00
2019-04-26T00:36:35.838Z,81.14
2019-04-26T00:39:06.642Z,80.86
2019-04-26T00:41:37.191Z,81.49
2019-04-26T00:44:06.572Z,81.18
2019-04-26T00:46:38.055Z,81.72
2019-04-26T00:49:10.654Z,81.73
2019-04-26T00:51:41.227Z,81.97
2019-04-26T00:54:11.931Z,82.23
2019-04-26T00:56:41.382Z,82.17
2019-04-26T00:59:12.042Z,82.17
2019-04-26T01:01:45.819Z,82.34
2019-04-26T01:04:16.030Z,82.12
2019-04-26T01:06:48.111Z,81.76
2019-04-26T01:09:17.500Z,81.74
2019-04-26T01:11:46.888Z,81.59
2019-04-26T01:14:16.558Z,82.11
2019-04-26T01:16:47.783Z,82.07
2019-04-26T01:19:19.085Z,82.21
2019-04-26T01:21:52.859Z,81.84
2019-04-26T01:24:25.398Z,81.86
2019-04-26T01:26:56.811Z,81.91
2019-04-26T01:29:28.011Z,81.73
2019-04-26T01:32:04.456Z,81.85
2019-04-26T01:37:22.530Z,81.46
2019-04-26T01:39:57.471Z,81.74
2019-04-26T01:42:42.464Z,81.97
2019-04-26T01:45:20.220Z,82.02
2019-04-26T01:47:52.627Z,82.12
2019-04-26T01:50:25.255Z,81.73
2019-04-26T01:52:55.885Z,82.54
2019-04-26T01:55:29.185Z,82.89
2019-04-26T01:58:00.694Z,82.66
2019-04-26T02:00:49.292Z,82.61
2019-04-26T02:03:25.649Z,82.79
2019-04-26T02:05:55.500Z,83.08
2019-04-26T02:08:26.172Z,83.29
2019-04-26T02:10:55.872Z,83.65
2019-04-26T02:13:25.550Z,83.56
2019-04-26T02:15:55.108Z,83.53
2019-04-26T02:18:25.504Z,84.15
2019-04-26T02:21:26.518Z,84.14
2019-04-26T02:24:15.406Z,84.01
2019-04-26T02:26:47.685Z,84.39
2019-04-26T02:29:22.748Z,84.93
2019-04-26T02:31:54.668Z,84.80
2019-04-26T02:34:25.887Z,84.78
2019-04-26T02:37:00.554Z,84.69
2019-04-26T02:39:35.929Z,84.70
2019-04-26T02:42:08.846Z,85.16
2019-04-26T02:44:47.933Z,85.61
2019-04-26T02:48:01.726Z,85.35
2019-04-26T02:50:45.460Z,85.54
2019-04-26T02:53:31.649Z,85.59
2019-04-26T02:56:37.734Z,85.81
2019-04-26T02:59:43.333Z,86.66
2019-04-26T03:02:25.514Z,86.98
2019-04-26T03:05:02.373Z,87.26
2019-04-26T03:08:02.658Z,87.32
2019-04-26T03:10:40.266Z,87.78
2019-04-26T03:13:19.012Z,87.65
2019-04-26T03:16:02.464Z,87.63
2019-04-26T03:18:48.812Z,87.43
2019-04-26T03:21:26.314Z,87.49
2019-04-26T03:24:07.385Z,87.57
2019-04-26T03:27:08.567Z,88.23
2019-04-26T03:30:18.939Z,88.63
2019-04-26T03:32:55.237Z,88.58
2019-04-26T03:35:48.521Z,88.48
2019-04-26T03:38:21.266Z,88.66
2019-04-26T03:41:12.143Z,88.84
2019-04-26T03:44:06.670Z,88.97
2019-04-26T03:46:49.936Z,90.25
2019-04-26T03:49:45.667Z,89.63
2019-04-26T03:52:43.539Z,89.61
2019-04-26T03:56:06.417Z,89.64
2019-04-26T03:59:02.611Z,89.85
2019-04-26T04:01:39.566Z,89.98
2019-04-26T04:04:28.939Z,90.27
2019-04-26T04:07:04.557Z,90.00
2019-04-26T04:09:38.066Z,89.88
2019-04-26T04:12:23.800Z,90.13
2019-04-26T04:15:06.789Z,90.31
2019-04-26T04:17:50.402Z,90.14
2019-04-26T04:21:22.583Z,89.94
2019-04-26T04:24:08.086Z,90.06
2019-04-26T04:27:30.806Z,90.07
2019-04-26T04:30:33.013Z,90.25
2019-04-26T04:33:15.290Z,89.83
2019-04-26T04:35:52.996Z,89.52
2019-04-26T04:38:42.170Z,89.21
2019-04-26T04:41:33.717Z,88.81
2019-04-26T04:45:01.883Z,88.74
2019-04-26T04:47:41.232Z,88.54
2019-04-26T04:50:22.510Z,87.72
2019-04-26T04:53:25.897Z,87.45
2019-04-26T04:56:35.003Z,86.97
2019-04-26T04:59:15.271Z,86.25
2019-04-26T05:02:23.406Z,85.66
2019-04-26T05:05:34.538Z,86.07
2019-04-26T05:08:18.406Z,85.63
2019-04-26T05:10:56.631Z,84.93
2019-04-26T05:13:40.701Z,84.21
2019-04-26T05:16:52.587Z,84.21
2019-04-26T05:19:44.214Z,84.05
2019-04-26T05:22:55.703Z,82.85
2019-04-26T05:26:41.868Z,82.97
2019-04-26T05:30:11.411Z,83.16
2019-04-26T05:33:16.680Z,82.21
2019-04-26T05:36:15.152Z,82.02
2019-04-26T05:38:53.677Z,81.53
2019-04-26T05:42:00.897Z,81.04
2019-04-26T05:45:19.899Z,80.95
2019-04-26T05:48:08.355Z,80.47
2019-04-26T05:51:15.415Z,80.38
2019-04-26T05:54:33.703Z,79.87
2019-04-26T05:57:14.528Z,79.45
2019-04-26T06:00:38.183Z,79.00
2019-04-26T06:03:42.719Z,77.99
2019-04-26T06:06:31.745Z,77.54
2019-04-26T06:10:03.602Z,76.58
2019-04-26T06:13:35.230Z,76.30
2019-04-26T06:16:30.902Z,76.20
2019-04-26T06:19:17.688Z,76.21
2019-04-26T06:22:07.309Z,76.33
2019-04-26T06:25:21.551Z,75.23
2019-04-26T06:28:31.310Z,75.42
2019-04-26T06:31:48.700Z,75.42
2019-04-26T06:34:30.537Z,74.45
2019-04-26T06:37:25.242Z,74.30
2019-04-26T06:40:09.893Z,74.36
2019-04-26T06:43:34.892Z,73.91
2019-04-26T06:47:06.598Z,73.91
2019-04-26T06:50:29.765Z,73.26
2019-04-26T06:53:49.024Z,72.50
2019-04-26T06:56:38.118Z,72.15
2019-04-26T06:59:22.574Z,71.60
2019-04-26T07:02:06.132Z,71.15
2019-04-26T07:05:15.190Z,71.16
2019-04-26T07:08:28.399Z,71.50
2019-04-26T07:11:39.622Z,70.97
2019-04-26T07:15:03.912Z,70.26
2019-04-26T07:18:06.389Z,69.26
2019-04-26T07:20:51.367Z,69.33
2019-04-26T07:23:51.334Z,68.04
2019-04-26T07:27:13.124Z,68.27
2019-04-26T07:30:23.009Z,67.46
2019-04-26T07:33:52.005Z,66.84
2019-04-26T07:37:06.991Z,65.95
2019-04-26T07:40:27.743Z,65.50
2019-04-26T07:43:51.912Z,65.53
2019-04-26T07:46:48.237Z,64.72
2019-04-26T07:49:53.283Z,63.85
2019-04-26T07:53:09.271Z,64.00
2019-04-26T07:55:58.119Z,64.06
2019-04-26T07:59:07.229Z,63.75
2019-04-26T08:02:18.745Z,63.46
2019-04-26T08:04:57.817Z,62.10
2019-04-26T08:07:30.773Z,61.61
2019-04-26T08:10:16.124Z,61.41
2019-04-26T08:12:54.004Z,61.25
2019-04-26T08:15:44.917Z,61.17
2019-04-26T08:18:29.295Z,60.28
2019-04-26T08:21:27.019Z,60.19
2019-04-26T08:24:07.916Z,60.24
2019-04-26T08:26:40.414Z,59.82
2019-04-26T08:29:12.715Z,60.22
2019-04-26T08:31:44.665Z,59.25
2019-04-26T08:34:21.148Z,58.89
2019-04-26T08:37:01.786Z,58.25
2019-04-26T08:39:44.948Z,58.17
2019-04-26T08:42:11.854Z,57.61
2019-04-26T08:44:53.020Z,57.41
2019-04-26T08:47:38.218Z,56.61
2019-04-26T08:50:20.371Z,56.61
2019-04-26T08:52:57.817Z,56.27
2019-04-26T08:55:30.420Z,56.52
2019-04-26T08:58:02.722Z,54.21
2019-04-26T09:00:57.133Z,54.69
2019-04-26T09:03:49.018Z,54.84
2019-04-26T09:06:39.566Z,54.50
2019-04-26T09:09:18.217Z,54.07
2019-04-26T09:11:59.504Z,53.93
2019-04-26T09:14:24.128Z,53.60
2019-04-26T09:16:53.529Z,53.46
2019-04-26T09:19:26.274Z,53.38
2019-04-26T09:22:13.094Z,53.02
2019-04-26T09:25:08.998Z,52.15
2019-04-26T09:27:58.824Z,52.69
2019-04-26T09:30:52.317Z,51.00
2019-04-26T09:33:27.605Z,49.72
2019-04-26T09:35:57.077Z,49.80
2019-04-26T09:38:26.942Z,48.93
2019-04-26T09:40:57.294Z,47.57
2019-04-26T09:43:39.902Z,47.11
2019-04-26T09:46:22.583Z,46.25
2019-04-26T09:49:14.115Z,45.83
2019-04-26T09:51:43.559Z,44.79
2019-04-26T09:54:15.330Z,43.27
2019-04-26T09:56:44.151Z,44.36
2019-04-26T09:59:13.942Z,44.52
2019-04-26T10:01:43.495Z,45.66
2019-04-26T10:04:12.867Z,45.79
2019-04-26T10:06:42.338Z,45.03
2019-04-26T10:09:17.325Z,44.67
2019-04-26T10:11:51.530Z,43.17
2019-04-26T10:14:39.344Z,42.45
2019-04-26T10:17:27.989Z,43.50
2019-04-26T10:19:58.145Z,43.34
2019-04-26T10:22:32.103Z,41.61
2019-04-26T10:25:02.468Z,38.62
2019-04-26T10:27:36.083Z,38.83
2019-04-26T10:30:09.048Z,38.71
2019-04-26T10:32:35.481Z,37.94
2019-04-26T10:35:04.819Z,36.91
2019-04-26T10:37:39.693Z,37.05
2019-04-26T10:40:06.259Z,37.25
2019-04-26T10:42:35.618Z,36.15
2019-04-26T10:45:10.454Z,35.78
2019-04-26T10:47:38.605Z,34.95
2019-04-26T10:50:11.089Z,34.73
2019-04-26T10:53:02.046Z,33.94
2019-04-26T10:56:05.418Z,33.37
2019-04-26T10:58:39.295Z,32.39
2019-04-26T11:01:12.664Z,32.01
2019-04-26T11:03:42.100Z,31.90
2019-04-26T11:06:11.595Z,31.56
2019-04-26T11:08:40.995Z,31.00
2019-04-26T11:11:10.732Z,31.23
2019-04-26T11:13:40.118Z,30.90
2019-04-26T11:16:09.585Z,31.43
2019-04-26T11:18:38.991Z,32.10
2019-04-26T11:21:08.359Z,31.16
2019-04-26T11:23:41.185Z,32.44
2019-04-26T11:26:09.904Z,30.62
2019-04-26T11:28:41.938Z,30.13
2019-04-26T11:31:10.814Z,29.59
2019-04-26T11:33:45.143Z,29.53
2019-04-26T11:36:11.286Z,29.16
2019-04-26T11:38:40.661Z,29.70
2019-04-26T11:41:10.089Z,28.87
2019-04-26T11:43:39.437Z,28.54
2019-04-26T11:46:08.804Z,27.97
2019-04-26T11:48:38.195Z,27.90
2019-04-26T11:51:07.559Z,27.49
2019-04-26T11:53:40.469Z,27.96
2019-04-26T11:56:08.041Z,28.30
2019-04-26T11:58:37.464Z,27.68
2019-04-26T12:01:08.446Z,28.05
2019-04-26T12:03:39.438Z,27.36
2019-04-26T12:06:17.944Z,27.69
2019-04-26T12:08:54.116Z,26.96
2019-04-26T12:11:31.580Z,26.26
2019-04-26T12:13:55.451Z,26.03
2019-04-26T12:16:25.730Z,28.67
2019-04-26T12:18:55.133Z,28.57
2019-04-26T12:21:24.555Z,28.40
2019-04-26T12:23:55.494Z,28.36
2019-04-26T12:26:25.056Z,28.18
2019-04-26T12:28:54.409Z,28.07
2019-04-26T12:31:23.767Z,28.48
2019-04-26T12:33:53.170Z,27.91
2019-04-26T12:36:22.672Z,27.58
2019-04-26T12:38:52.029Z,27.81
2019-04-26T12:41:39.196Z,27.78
2019-04-26T12:43:54.504Z,27.71
2019-04-26T12:46:32.012Z,27.20
2019-04-26T12:49:01.450Z,26.68
2019-04-26T12:51:30.862Z,27.25
2019-04-26T12:54:03.880Z,26.33
2019-04-26T12:56:32.744Z,25.94
2019-04-26T12:59:02.292Z,26.53
2019-04-26T13:01:31.688Z,26.83
2019-04-26T13:04:05.496Z,26.97
2019-04-26T13:06:37.613Z,26.58
2019-04-26T13:09:13.813Z,25.97
2019-04-26T13:12:09.805Z,25.88
2019-04-26T13:14:52.367Z,25.83
2019-04-26T13:17:24.634Z,25.86
2019-04-26T13:19:55.440Z,25.40
2019-04-26T13:22:24.963Z,26.32
2019-04-26T13:24:54.820Z,26.48
2019-04-26T13:27:24.215Z,27.43
2019-04-26T13:30:01.874Z,26.71
2019-04-26T13:32:24.806Z,25.88
2019-04-26T13:34:54.160Z,25.10
2019-04-26T13:37:23.578Z,25.84
2019-04-26T13:39:55.328Z,24.91
2019-04-26T13:42:24.017Z,25.15
2019-04-26T13:45:05.855Z,25.63
2019-04-26T13:47:49.057Z,25.93
2019-04-26T13:50:37.707Z,25.50
2019-04-26T13:53:08.420Z,25.62
2019-04-26T13:55:38.809Z,25.80
2019-04-26T13:58:08.227Z,25.83
2019-04-26T14:00:39.768Z,25.68
2019-04-26T14:03:08.997Z,25.51
2019-04-26T14:05:38.444Z,25.47
2019-04-26T14:08:07.877Z,26.00
2019-04-26T14:10:37.231Z,26.14
2019-04-26T14:13:06.594Z,26.04
2019-04-26T14:15:39.382Z,26.46
2019-04-26T14:18:07.173Z,26.64
2019-04-26T14:20:36.617Z,26.94
2019-04-26T14:23:28.120Z,27.39
2019-04-26T14:26:16.396Z,27.09
2019-04-26T14:28:45.785Z,27.04
2019-04-26T14:31:16.445Z,27.42
2019-04-26T14:33:46.273Z,26.89
2019-04-26T14:36:17.905Z,27.04
2019-04-26T14:38:46.761Z,26.60
2019-04-26T14:41:21.994Z,26.45
2019-04-26T14:43:47.403Z,26.55
2019-04-26T14:46:16.813Z,27.09
2019-04-26T14:49:00.569Z,27.16
2019-04-26T14:51:18.676Z,27.85
2019-04-26T14:53:48.323Z,27.76
2019-04-26T14:56:17.653Z,27.18
2019-04-26T14:58:47.032Z,27.76
2019-04-26T15:01:32.257Z,27.23
2019-04-26T15:04:18.181Z,27.56
2019-04-26T15:06:51.920Z,27.16
2019-04-26T15:09:20.184Z,27.22
2019-04-26T15:11:54.133Z,27.13
2019-04-26T15:14:22.702Z,27.48
2019-04-26T15:16:52.169Z,27.80
2019-04-26T15:19:22.551Z,27.33
2019-04-26T15:21:52.417Z,26.89
2019-04-26T15:24:22.629Z,27.82
2019-04-26T15:26:52.078Z,27.52
2019-04-26T15:29:26.901Z,27.86
2019-04-26T15:31:53.641Z,27.51
2019-04-26T15:34:26.508Z,27.89
2019-04-26T15:36:54.827Z,27.88
2019-04-26T15:39:44.525Z,29.03
2019-04-26T15:42:31.895Z,28.02
2019-04-26T15:45:14.014Z,27.87
2019-04-26T15:48:02.286Z,28.35
2019-04-26T15:50:52.016Z,28.79
2019-04-26T15:53:22.126Z,30.74
2019-04-26T15:55:52.494Z,32.45
2019-04-26T15:58:22.277Z,33.27
2019-04-26T16:00:52.848Z,34.66
2019-04-26T16:03:22.722Z,35.35
2019-04-26T16:05:52.173Z,35.37
2019-04-26T16:08:22.885Z,36.19
2019-04-26T16:10:53.171Z,36.80
2019-04-26T16:13:24.159Z,37.25
2019-04-26T16:15:53.628Z,37.35
2019-04-26T16:18:23.114Z,38.01
2019-04-26T16:20:53.389Z,38.42
2019-04-26T16:23:24.273Z,39.04
2019-04-26T16:25:53.822Z,39.33
2019-04-26T16:28:51.528Z,39.42
2019-04-26T16:31:42.194Z,39.54
2019-04-26T16:34:14.256Z,39.77
2019-04-26T16:36:45.316Z,40.58
2019-04-26T16:39:15.567Z,40.70
2019-04-26T16:41:45.069Z,40.70
2019-04-26T16:44:14.456Z,40.74
2019-04-26T16:46:44.070Z,41.25
2019-04-26T16:49:14.640Z,40.93
2019-04-26T16:51:44.156Z,41.12
2019-04-26T16:54:21.326Z,41.50
2019-04-26T16:56:44.716Z,41.54
2019-04-26T16:59:28.743Z,41.70
2019-04-26T17:01:47.414Z,41.67
2019-04-26T17:04:20.007Z,41.66
2019-04-26T17:06:47.523Z,41.83
2019-04-26T17:09:16.938Z,42.20
2019-04-26T17:11:46.351Z,42.30
2019-04-26T17:14:15.730Z,42.39
2019-04-26T17:16:45.125Z,43.13
2019-04-26T17:19:19.923Z,44.26
2019-04-26T17:22:06.859Z,44.09
2019-04-26T17:24:58.179Z,44.17
2019-04-26T17:27:27.581Z,44.59
2019-04-26T17:29:56.938Z,45.31
2019-04-26T17:32:26.309Z,45.58
2019-04-26T17:34:59.612Z,45.78
2019-04-26T17:37:27.943Z,46.08
2019-04-26T17:39:57.627Z,45.98
2019-04-26T17:42:29.805Z,46.17
2019-04-26T17:45:04.003Z,46.09
2019-04-26T17:47:34.692Z,46.19
2019-04-26T17:50:04.561Z,46.06
2019-04-26T17:52:36.063Z,46.01
2019-04-26T17:55:03.083Z,46.40
2019-04-26T17:57:36.730Z,46.35
2019-04-26T18:00:07.438Z,46.64
2019-04-26T18:02:42.242Z,47.11
2019-04-26T18:05:10.847Z,46.92
2019-04-26T18:07:44.303Z,47.19
2019-04-26T18:10:11.375Z,47.07
2019-04-26T18:12:41.318Z,47.44
2019-04-26T18:15:14.360Z,47.50
2019-04-26T18:18:14.409Z,48.12
2019-04-26T18:21:00.557Z,48.46
2019-04-26T18:23:30.517Z,48.18
2019-04-26T18:25:59.993Z,48.66
2019-04-26T18:28:29.349Z,48.58
2019-04-26T18:30:59.236Z,48.41
2019-04-26T18:33:30.054Z,48.97
2019-04-26T18:35:59.438Z,49.45
2019-04-26T18:38:31.938Z,48.44
2019-04-26T18:41:01.656Z,49.22
2019-04-26T18:43:32.805Z,49.24
2019-04-26T18:46:17.050Z,49.19
2019-04-26T18:48:46.903Z,49.40
2019-04-26T18:51:16.307Z,49.25
2019-04-26T18:54:17.812Z,49.17
2019-04-26T18:56:50.398Z,49.43
2019-04-26T18:59:23.371Z,49.36
2019-04-26T19:01:53.810Z,49.85
2019-04-26T19:04:23.770Z,50.08
2019-04-26T19:06:53.201Z,50.44
2019-04-26T19:09:27.364Z,50.55
2019-04-26T19:11:57.509Z,51.27
2019-04-26T19:15:03.297Z,51.39
2019-04-26T19:17:54.502Z,51.50
2019-04-26T19:20:39.192Z,51.87
2019-04-26T19:23:09.830Z,52.37
2019-04-26T19:25:41.203Z,52.89
2019-04-26T19:28:11.980Z,52.82
2019-04-26T19:30:47.307Z,53.01
2019-04-26T19:33:16.743Z,53.06
2019-04-26T19:35:47.209Z,53.10
2019-04-26T19:38:15.007Z,53.40
2019-04-26T19:40:47.806Z,53.54
2019-04-26T19:43:28.098Z,54.09
2019-04-26T19:46:01.455Z,54.06
2019-04-26T19:48:55.331Z,54.31
2019-04-26T19:51:41.478Z,54.23
2019-04-26T19:54:27.672Z,54.51
2019-04-26T19:57:02.442Z,54.83
2019-04-26T19:59:33.177Z,55.18
2019-04-26T20:02:01.558Z,55.43
2019-04-26T20:04:34.050Z,55.62
2019-04-26T20:07:02.212Z,55.95
2019-04-26T20:09:31.945Z,56.39
2019-04-26T20:12:02.563Z,56.77
2019-04-26T20:14:44.754Z,57.23
2019-04-26T20:17:03.282Z,57.81
2019-04-26T20:19:37.273Z,58.16
2019-04-26T20:22:04.004Z,58.29
2019-04-26T20:24:33.347Z,58.49
2019-04-26T20:27:03.484Z,58.80
2019-04-26T20:29:33.093Z,59.13
2019-04-26T20:32:32.015Z,59.27
2019-04-26T20:35:28.393Z,59.60
2019-04-26T20:38:01.077Z,60.15
2019-04-26T20:40:29.229Z,60.26
2019-04-26T20:43:03.398Z,60.60
2019-04-26T20:45:41.113Z,60.94
2019-04-26T20:48:02.329Z,61.32
2019-04-26T20:50:35.205Z,61.64
2019-04-26T20:53:03.395Z,61.52
2019-04-26T20:55:34.577Z,62.26
2019-04-26T20:58:08.306Z,62.47
2019-04-26T21:00:36.528Z,62.75
2019-04-26T21:03:20.160Z,63.14
2019-04-26T21:05:46.332Z,63.19
2019-04-26T21:08:08.954Z,63.46
2019-04-26T21:10:38.410Z,63.82
2019-04-26T21:13:12.226Z,63.73
2019-04-26T21:15:53.513Z,64.04
2019-04-26T21:18:12.896Z,64.40
2019-04-26T21:20:42.620Z,64.43
2019-04-26T21:23:13.251Z,64.64
2019-04-26T21:25:55.490Z,64.94
2019-04-26T21:28:42.972Z,65.21
2019-04-26T21:31:32.187Z,65.08
2019-04-26T21:34:10.330Z,65.40
2019-04-26T21:36:55.205Z,65.72
2019-04-26T21:39:50.490Z,65.78
2019-04-26T21:42:25.637Z,65.78
2019-04-26T21:44:55.032Z,65.91
2019-04-26T21:47:27.483Z,66.37
2019-04-26T21:50:01.257Z,66.25
2019-04-26T21:52:30.685Z,66.12
2019-04-26T21:55:00.025Z,66.16
2019-04-26T21:57:31.742Z,65.78
2019-04-26T22:00:00.520Z,65.53
2019-04-26T22:02:36.071Z,66.14
2019-04-26T22:05:03.175Z,65.77
2019-04-26T22:07:32.838Z,65.76
2019-04-26T22:10:10.816Z,65.86
2019-04-26T22:12:40.229Z,65.89
2019-04-26T22:15:37.528Z,66.64
2019-04-26T22:18:16.477Z,66.75
2019-04-26T22:21:09.887Z,66.79
2019-04-26T22:23:57.254Z,66.64
2019-04-26T22:26:26.719Z,67.13
2019-04-26T22:28:56.083Z,67.30
2019-04-26T22:31:25.442Z,67.75
2019-04-26T22:33:56.114Z,67.80
2019-04-26T22:36:27.417Z,68.04
2019-04-26T22:39:01.684Z,67.93
2019-04-26T22:41:28.494Z,67.82
2019-04-26T22:44:06.726Z,67.77
2019-04-26T22:46:49.467Z,67.93
2019-04-26T22:49:17.797Z,67.89
2019-04-26T22:51:47.172Z,68.33
2019-04-26T22:54:16.596Z,68.16
2019-04-26T22:56:46.134Z,68.83
2019-04-26T22:59:15.468Z,68.99
2019-04-26T23:01:48.784Z,69.52
2019-04-26T23:04:24.960Z,69.61
2019-04-26T23:06:48.182Z,69.39
2019-04-26T23:09:20.583Z,69.68
2019-04-26T23:11:54.043Z,69.68
2019-04-26T23:14:48.286Z,70.47
2019-04-26T23:17:35.250Z,70.14
2019-04-26T23:20:15.248Z,70.56
2019-04-26T23:22:45.001Z,70.56
2019-04-26T23:25:14.590Z,71.15
2019-04-26T23:27:43.993Z,70.78
2019-04-26T23:30:14.548Z,71.34
2019-04-26T23:32:43.901Z,71.34
2019-04-26T23:35:13.795Z,71.10
2019-04-26T23:37:43.200Z,71.01
2019-04-26T23:40:12.591Z,70.79
2019-04-26T23:42:43.538Z,71.06
2019-04-26T23:45:14.405Z,71.41
2019-04-26T23:47:43.901Z,71.00
2019-04-26T23:50:14.100Z,70.70
2019-04-26T23:52:43.758Z,70.91
2019-04-26T23:55:16.443Z,70.76
2019-04-26T23:57:45.936Z,70.81
